sensor_id;sensor_type;location;lat;lon;timestamp;pressure;altitude;pressure_sealevel;temperature;humidity
47280;BME280;34064;44.942;0.008;2024-01-07T00:02:00;99213.47;;;7.19;66.79
47280;BME280;34064;44.942;0.008;2024-01-07T00:04:26;99198.47;;;7.20;66.58
47280;BME280;34064;44.942;0.008;2024-01-07T00:06:52;99199.41;;;7.18;66.34
47280;BME280;34064;44.942;0.008;2024-01-07T00:09:19;99201.53;;;7.12;66.52
47280;BME280;34064;44.942;0.008;2024-01-07T00:11:45;99205.22;;;7.09;66.71
47280;BME280;34064;44.942;0.008;2024-01-07T00:14:11;99208.94;;;7.05;67.01
47280;BME280;34064;44.942;0.008;2024-01-07T00:16:38;99205.22;;;7.09;66.70
47280;BME280;34064;44.942;0.008;2024-01-07T00:19:05;99215.88;;;7.08;66.60
47280;BME280;34064;44.942;0.008;2024-01-07T00:21:32;99214.22;;;7.05;66.77
47280;BME280;34064;44.942;0.008;2024-01-07T00:23:58;99198.31;;;7.07;66.85
47280;BME280;34064;44.942;0.008;2024-01-07T00:26:24;99200.03;;;7.08;66.99
47280;BME280;34064;44.942;0.008;2024-01-07T00:28:51;99207.19;;;7.06;66.95
47280;BME280;34064;44.942;0.008;2024-01-07T00:31:17;99206.16;;;7.08;66.86
47280;BME280;34064;44.942;0.008;2024-01-07T00:33:43;99214.31;;;7.03;66.88
47280;BME280;34064;44.942;0.008;2024-01-07T00:36:10;99218.78;;;7.03;66.86
47280;BME280;34064;44.942;0.008;2024-01-07T00:38:36;99221.47;;;7.01;66.98
47280;BME280;34064;44.942;0.008;2024-01-07T00:41:02;99217.06;;;7.02;66.83
47280;BME280;34064;44.942;0.008;2024-01-07T00:43:29;99225.06;;;7.00;67.02
47280;BME280;34064;44.942;0.008;2024-01-07T00:45:55;99217.91;;;7.02;67.07
47280;BME280;34064;44.942;0.008;2024-01-07T00:48:21;99217.75;;;7.06;66.99
47280;BME280;34064;44.942;0.008;2024-01-07T00:50:47;99206.25;;;7.07;67.05
47280;BME280;34064;44.942;0.008;2024-01-07T00:53:14;99221.16;;;7.08;67.17
47280;BME280;34064;44.942;0.008;2024-01-07T00:55:40;99214.84;;;7.10;67.07
47280;BME280;34064;44.942;0.008;2024-01-07T00:58:06;99219.25;;;7.10;67.06
47280;BME280;34064;44.942;0.008;2024-01-07T01:00:33;99222.84;;;7.09;67.08
47280;BME280;34064;44.942;0.008;2024-01-07T01:02:59;99215.78;;;7.09;66.71
47280;BME280;34064;44.942;0.008;2024-01-07T01:05:27;99222.78;;;7.10;66.90
47280;BME280;34064;44.942;0.008;2024-01-07T01:07:53;99223.88;;;7.06;66.89
47280;BME280;34064;44.942;0.008;2024-01-07T01:10:19;99228.63;;;6.99;67.17
47280;BME280;34064;44.942;0.008;2024-01-07T01:12:46;99226.75;;;7.01;67.08
47280;BME280;34064;44.942;0.008;2024-01-07T01:15:12;99223.19;;;7.02;67.17
47280;BME280;34064;44.942;0.008;2024-01-07T01:17:38;99227.78;;;6.99;67.00
47280;BME280;34064;44.942;0.008;2024-01-07T01:20:05;99232.22;;;6.98;66.79
47280;BME280;34064;44.942;0.008;2024-01-07T01:22:32;99235.28;;;6.91;67.19
47280;BME280;34064;44.942;0.008;2024-01-07T01:24:58;99240.56;;;6.91;67.07
47280;BME280;34064;44.942;0.008;2024-01-07T01:27:24;99244.16;;;6.90;67.08
47280;BME280;34064;44.942;0.008;2024-01-07T01:29:51;99242.44;;;6.89;67.03
47280;BME280;34064;44.942;0.008;2024-01-07T01:32:17;99244.28;;;6.86;67.16
47280;BME280;34064;44.942;0.008;2024-01-07T01:34:44;99247.88;;;6.85;67.18
47280;BME280;34064;44.942;0.008;2024-01-07T01:37:11;99246.19;;;6.84;67.12
47280;BME280;34064;44.942;0.008;2024-01-07T01:39:41;99244.97;;;6.90;67.07
47280;BME280;34064;44.942;0.008;2024-01-07T01:42:07;99249.28;;;6.93;67.20
47280;BME280;34064;44.942;0.008;2024-01-07T01:44:34;99254.56;;;6.93;67.24
47280;BME280;34064;44.942;0.008;2024-01-07T01:47:01;99257.94;;;6.95;67.16
47280;BME280;34064;44.942;0.008;2024-01-07T01:49:30;99257.78;;;6.98;67.37
47280;BME280;34064;44.942;0.008;2024-01-07T01:51:57;99252.50;;;6.98;67.46
47280;BME280;34064;44.942;0.008;2024-01-07T01:54:24;99252.59;;;6.96;67.25
47280;BME280;34064;44.942;0.008;2024-01-07T01:56:50;99255.91;;;7.00;67.35
47280;BME280;34064;44.942;0.008;2024-01-07T01:59:18;99266.63;;;6.97;67.24
47280;BME280;34064;44.942;0.008;2024-01-07T02:01:44;99261.34;;;6.97;67.29
47280;BME280;34064;44.942;0.008;2024-01-07T02:04:11;99260.56;;;6.95;67.58
47280;BME280;34064;44.942;0.008;2024-01-07T02:06:37;99259.84;;;6.93;67.09
47280;BME280;34064;44.942;0.008;2024-01-07T02:09:04;99267.13;;;6.87;67.26
47280;BME280;34064;44.942;0.008;2024-01-07T02:11:30;99261.84;;;6.87;67.30
47280;BME280;34064;44.942;0.008;2024-01-07T02:13:56;99264.59;;;6.86;67.18
47280;BME280;34064;44.942;0.008;2024-01-07T02:16:23;99263.72;;;6.85;67.21
47280;BME280;34064;44.942;0.008;2024-01-07T02:18:49;99259.31;;;6.86;67.18
47280;BME280;34064;44.942;0.008;2024-01-07T02:21:16;99264.69;;;6.84;67.03
47280;BME280;34064;44.942;0.008;2024-01-07T02:23:42;99272.75;;;6.81;67.14
47280;BME280;34064;44.942;0.008;2024-01-07T02:26:09;99273.78;;;6.79;67.01
47280;BME280;34064;44.942;0.008;2024-01-07T02:28:35;99270.28;;;6.78;66.96
47280;BME280;34064;44.942;0.008;2024-01-07T02:31:01;99271.22;;;6.77;66.85
47280;BME280;34064;44.942;0.008;2024-01-07T02:33:28;99279.38;;;6.72;67.06
47280;BME280;34064;44.942;0.008;2024-01-07T02:35:55;99274.19;;;6.71;67.10
47280;BME280;34064;44.942;0.008;2024-01-07T02:38:21;99276.97;;;6.68;67.15
47280;BME280;34064;44.942;0.008;2024-01-07T02:40:47;99284.06;;;6.67;66.96
47280;BME280;34064;44.942;0.008;2024-01-07T02:43:14;99284.91;;;6.68;67.11
47280;BME280;34064;44.942;0.008;2024-01-07T02:45:40;99281.41;;;6.67;66.98
47280;BME280;34064;44.942;0.008;2024-01-07T02:48:06;99288.47;;;6.67;67.01
47280;BME280;34064;44.942;0.008;2024-01-07T02:50:33;99291.19;;;6.65;67.17
47280;BME280;34064;44.942;0.008;2024-01-07T02:52:59;99294.84;;;6.63;67.16
47280;BME280;34064;44.942;0.008;2024-01-07T02:55:26;99290.50;;;6.62;67.22
47280;BME280;34064;44.942;0.008;2024-01-07T02:57:52;99292.31;;;6.61;67.13
47280;BME280;34064;44.942;0.008;2024-01-07T03:00:18;99294.84;;;6.63;67.34
47280;BME280;34064;44.942;0.008;2024-01-07T03:02:45;99302.88;;;6.61;67.29
47280;BME280;34064;44.942;0.008;2024-01-07T03:05:11;99303.72;;;6.62;67.29
47280;BME280;34064;44.942;0.008;2024-01-07T03:07:38;99307.28;;;6.61;67.18
47280;BME280;34064;44.942;0.008;2024-01-07T03:10:06;99300.44;;;6.56;67.19
47280;BME280;34064;44.942;0.008;2024-01-07T03:12:33;99306.59;;;6.57;67.18
47280;BME280;34064;44.942;0.008;2024-01-07T03:14:59;99315.69;;;6.51;67.23
47280;BME280;34064;44.942;0.008;2024-01-07T03:17:25;99312.09;;;6.52;67.35
47280;BME280;34064;44.942;0.008;2024-01-07T03:19:52;99311.31;;;6.50;67.33
47280;BME280;34064;44.942;0.008;2024-01-07T03:22:18;99316.59;;;6.50;67.55
47280;BME280;34064;44.942;0.008;2024-01-07T03:24:44;99307.91;;;6.48;67.53
47280;BME280;34064;44.942;0.008;2024-01-07T03:27:10;99314.13;;;6.47;67.51
47280;BME280;34064;44.942;0.008;2024-01-07T03:29:37;99308.78;;;6.49;67.29
47280;BME280;34064;44.942;0.008;2024-01-07T03:32:03;99309.63;;;6.49;67.45
47280;BME280;34064;44.942;0.008;2024-01-07T03:34:30;99322.13;;;6.46;67.41
47280;BME280;34064;44.942;0.008;2024-01-07T03:36:56;99321.34;;;6.44;67.56
47280;BME280;34064;44.942;0.008;2024-01-07T03:39:23;99313.50;;;6.42;67.52
47280;BME280;34064;44.942;0.008;2024-01-07T03:41:49;99318.00;;;6.40;67.25
47280;BME280;34064;44.942;0.008;2024-01-07T03:44:20;99313.91;;;6.34;67.73
47280;BME280;34064;44.942;0.008;2024-01-07T03:46:46;99317.56;;;6.32;67.81
47280;BME280;34064;44.942;0.008;2024-01-07T03:49:12;99312.03;;;6.36;67.67
47280;BME280;34064;44.942;0.008;2024-01-07T03:51:39;99321.66;;;6.37;67.46
47280;BME280;34064;44.942;0.008;2024-01-07T03:54:05;99316.53;;;6.34;67.39
47280;BME280;34064;44.942;0.008;2024-01-07T03:56:32;99318.56;;;6.29;67.62
47280;BME280;34064;44.942;0.008;2024-01-07T03:58:58;99316.00;;;6.28;67.59
47280;BME280;34064;44.942;0.008;2024-01-07T04:01:24;99321.44;;;6.24;67.71
47280;BME280;34064;44.942;0.008;2024-01-07T04:03:50;99323.84;;;6.29;67.45
47280;BME280;34064;44.942;0.008;2024-01-07T04:06:17;99325.94;;;6.22;67.66
47280;BME280;34064;44.942;0.008;2024-01-07T04:08:43;99325.00;;;6.23;67.62
47280;BME280;34064;44.942;0.008;2024-01-07T04:11:09;99329.44;;;6.23;67.37
47280;BME280;34064;44.942;0.008;2024-01-07T04:13:36;99330.44;;;6.20;67.66
47280;BME280;34064;44.942;0.008;2024-01-07T04:16:02;99322.75;;;6.16;67.47
47280;BME280;34064;44.942;0.008;2024-01-07T04:18:29;99324.63;;;6.14;67.79
47280;BME280;34064;44.942;0.008;2024-01-07T04:20:55;99333.25;;;6.17;67.53
47280;BME280;34064;44.942;0.008;2024-01-07T04:23:21;99331.53;;;6.16;67.38
47280;BME280;34064;44.942;0.008;2024-01-07T04:25:48;99325.56;;;6.13;67.60
47280;BME280;34064;44.942;0.008;2024-01-07T04:28:14;99333.53;;;6.11;67.81
47280;BME280;34064;44.942;0.008;2024-01-07T04:30:40;99329.03;;;6.13;67.82
47280;BME280;34064;44.942;0.008;2024-01-07T04:33:07;99337.88;;;6.12;67.65
47280;BME280;34064;44.942;0.008;2024-01-07T04:35:33;99320.34;;;6.11;67.90
47280;BME280;34064;44.942;0.008;2024-01-07T04:38:00;99324.53;;;6.15;67.53
47280;BME280;34064;44.942;0.008;2024-01-07T04:40:26;99322.97;;;6.11;67.71
47280;BME280;34064;44.942;0.008;2024-01-07T04:42:52;99323.91;;;6.10;67.41
47280;BME280;34064;44.942;0.008;2024-01-07T04:45:19;99336.16;;;6.11;67.63
47280;BME280;34064;44.942;0.008;2024-01-07T04:47:45;99338.06;;;6.09;67.74
47280;BME280;34064;44.942;0.008;2024-01-07T04:50:12;99339.91;;;6.07;67.78
47280;BME280;34064;44.942;0.008;2024-01-07T04:52:41;99342.69;;;6.04;68.08
47280;BME280;34064;44.942;0.008;2024-01-07T04:55:07;99341.63;;;6.08;67.59
47280;BME280;34064;44.942;0.008;2024-01-07T04:57:35;99354.94;;;6.05;68.02
47280;BME280;34064;44.942;0.008;2024-01-07T05:00:02;99348.59;;;6.09;67.66
47280;BME280;34064;44.942;0.008;2024-01-07T05:02:29;99351.22;;;6.09;67.51
47280;BME280;34064;44.942;0.008;2024-01-07T05:04:56;99359.44;;;6.03;67.85
47280;BME280;34064;44.942;0.008;2024-01-07T05:07:22;99344.47;;;6.03;67.93
47280;BME280;34064;44.942;0.008;2024-01-07T05:09:48;99357.72;;;6.02;67.81
47280;BME280;34064;44.942;0.008;2024-01-07T05:12:15;99361.41;;;5.98;67.84
47280;BME280;34064;44.942;0.008;2024-01-07T05:14:41;99361.41;;;5.98;67.83
47280;BME280;34064;44.942;0.008;2024-01-07T05:17:09;99350.72;;;6.01;67.83
47280;BME280;34064;44.942;0.008;2024-01-07T05:19:35;99367.63;;;5.97;67.83
47280;BME280;34064;44.942;0.008;2024-01-07T05:22:01;99365.25;;;5.90;68.02
47280;BME280;34064;44.942;0.008;2024-01-07T05:24:28;99365.06;;;5.95;67.82
47280;BME280;34064;44.942;0.008;2024-01-07T05:26:54;99369.69;;;5.90;67.83
47280;BME280;34064;44.942;0.008;2024-01-07T05:29:20;99372.25;;;5.91;68.08
47280;BME280;34064;44.942;0.008;2024-01-07T05:31:47;99371.50;;;5.89;68.08
47280;BME280;34064;44.942;0.008;2024-01-07T05:34:13;99377.69;;;5.88;68.24
47280;BME280;34064;44.942;0.008;2024-01-07T05:36:39;99362.44;;;5.95;68.02
47280;BME280;34064;44.942;0.008;2024-01-07T05:39:06;99373.16;;;5.90;67.93
47280;BME280;34064;44.942;0.008;2024-01-07T05:41:33;99374.13;;;5.89;68.11
47280;BME280;34064;44.942;0.008;2024-01-07T05:44:02;99374.13;;;5.89;68.06
47280;BME280;34064;44.942;0.008;2024-01-07T05:46:29;99375.81;;;5.90;67.90
47280;BME280;34064;44.942;0.008;2024-01-07T05:48:55;99383.72;;;5.90;67.72
47280;BME280;34064;44.942;0.008;2024-01-07T05:51:22;99378.44;;;5.90;68.07
47280;BME280;34064;44.942;0.008;2024-01-07T05:53:48;99384.69;;;5.89;67.78
47280;BME280;34064;44.942;0.008;2024-01-07T05:56:14;99386.44;;;5.89;68.02
47280;BME280;34064;44.942;0.008;2024-01-07T05:58:40;99389.16;;;5.87;68.11
47280;BME280;34064;44.942;0.008;2024-01-07T06:01:08;99395.50;;;5.83;68.06
47280;BME280;34064;44.942;0.008;2024-01-07T06:03:34;99395.38;;;5.86;68.07
47280;BME280;34064;44.942;0.008;2024-01-07T06:06:00;99405.91;;;5.86;67.65
47280;BME280;34064;44.942;0.008;2024-01-07T06:08:27;99406.00;;;5.85;67.71
47280;BME280;34064;44.942;0.008;2024-01-07T06:10:53;99410.63;;;5.80;67.91
47280;BME280;34064;44.942;0.008;2024-01-07T06:13:20;99415.81;;;5.81;68.14
47280;BME280;34064;44.942;0.008;2024-01-07T06:15:46;99418.59;;;5.78;68.19
47280;BME280;34064;44.942;0.008;2024-01-07T06:18:12;99418.44;;;5.81;68.04
47280;BME280;34064;44.942;0.008;2024-01-07T06:20:38;99419.44;;;5.78;67.87
47280;BME280;34064;44.942;0.008;2024-01-07T06:23:05;99416.03;;;5.76;67.85
47280;BME280;34064;44.942;0.008;2024-01-07T06:25:32;99413.38;;;5.76;67.87
47280;BME280;34064;44.942;0.008;2024-01-07T06:27:58;99419.53;;;5.77;67.67
47280;BME280;34064;44.942;0.008;2024-01-07T06:30:24;99421.28;;;5.76;67.83
47280;BME280;34064;44.942;0.008;2024-01-07T06:32:51;99419.75;;;5.72;67.58
47280;BME280;34064;44.942;0.008;2024-01-07T06:35:18;99427.00;;;5.67;67.78
47280;BME280;34064;44.942;0.008;2024-01-07T06:37:44;99426.22;;;5.65;67.88
47280;BME280;34064;44.942;0.008;2024-01-07T06:40:11;99433.28;;;5.65;67.71
47280;BME280;34064;44.942;0.008;2024-01-07T06:42:38;99429.09;;;5.60;67.87
47280;BME280;34064;44.942;0.008;2024-01-07T06:45:04;99427.41;;;5.58;67.91
47280;BME280;34064;44.942;0.008;2024-01-07T06:47:31;99439.88;;;5.54;67.99
47280;BME280;34064;44.942;0.008;2024-01-07T06:49:57;99441.47;;;5.58;67.82
47280;BME280;34064;44.942;0.008;2024-01-07T06:52:23;99442.41;;;5.57;67.77
47280;BME280;34064;44.942;0.008;2024-01-07T06:54:50;99445.13;;;5.56;67.87
47280;BME280;34064;44.942;0.008;2024-01-07T06:57:16;99445.94;;;5.56;68.02
47280;BME280;34064;44.942;0.008;2024-01-07T06:59:42;99448.78;;;5.52;67.99
47280;BME280;34064;44.942;0.008;2024-01-07T07:02:09;99445.25;;;5.53;67.87
47280;BME280;34064;44.942;0.008;2024-01-07T07:04:35;99453.22;;;5.51;67.92
47280;BME280;34064;44.942;0.008;2024-01-07T07:07:01;99456.69;;;5.52;67.87
47280;BME280;34064;44.942;0.008;2024-01-07T07:09:27;99462.97;;;5.49;67.96
47280;BME280;34064;44.942;0.008;2024-01-07T07:11:54;99464.03;;;5.45;68.13
47280;BME280;34064;44.942;0.008;2024-01-07T07:14:20;99465.91;;;5.43;68.09
47280;BME280;34064;44.942;0.008;2024-01-07T07:16:46;99466.66;;;5.45;67.78
47280;BME280;34064;44.942;0.008;2024-01-07T07:19:13;99470.28;;;5.42;67.97
47280;BME280;34064;44.942;0.008;2024-01-07T07:21:41;99466.66;;;5.45;67.85
47280;BME280;34064;44.942;0.008;2024-01-07T07:24:08;99469.50;;;5.40;67.82
47280;BME280;34064;44.942;0.008;2024-01-07T07:26:34;99473.94;;;5.40;68.06
47280;BME280;34064;44.942;0.008;2024-01-07T07:29:02;99473.81;;;5.43;67.95
47280;BME280;34064;44.942;0.008;2024-01-07T07:31:28;99473.94;;;5.40;68.04
47280;BME280;34064;44.942;0.008;2024-01-07T07:33:54;99473.66;;;5.46;68.01
47280;BME280;34064;44.942;0.008;2024-01-07T07:36:21;99464.94;;;5.44;68.02
47280;BME280;34064;44.942;0.008;2024-01-07T07:38:47;99471.28;;;5.40;68.06
47280;BME280;34064;44.942;0.008;2024-01-07T07:41:13;99467.88;;;5.38;68.12
47280;BME280;34064;44.942;0.008;2024-01-07T07:43:39;99465.03;;;5.42;68.19
47280;BME280;34064;44.942;0.008;2024-01-07T07:46:06;99471.09;;;5.44;68.03
47280;BME280;34064;44.942;0.008;2024-01-07T07:48:32;99469.28;;;5.45;67.99
47280;BME280;34064;44.942;0.008;2024-01-07T07:50:58;99476.03;;;5.52;67.85
47280;BME280;34064;44.942;0.008;2024-01-07T07:53:24;99473.38;;;5.52;67.99
47280;BME280;34064;44.942;0.008;2024-01-07T07:55:51;99473.31;;;5.54;68.06
47280;BME280;34064;44.942;0.008;2024-01-07T07:58:17;99472.72;;;5.47;68.20
47280;BME280;34064;44.942;0.008;2024-01-07T08:00:43;99470.75;;;5.52;67.96
47280;BME280;34064;44.942;0.008;2024-01-07T08:03:10;99476.88;;;5.53;68.06
47280;BME280;34064;44.942;0.008;2024-01-07T08:05:37;99478.50;;;5.55;67.95
47280;BME280;34064;44.942;0.008;2024-01-07T08:08:03;99481.94;;;5.57;67.94
47280;BME280;34064;44.942;0.008;2024-01-07T08:10:30;99480.22;;;5.56;67.73
47280;BME280;34064;44.942;0.008;2024-01-07T08:12:58;99491.75;;;5.54;68.05
47280;BME280;34064;44.942;0.008;2024-01-07T08:15:24;99488.13;;;5.56;67.96
47280;BME280;34064;44.942;0.008;2024-01-07T08:17:52;99493.28;;;5.59;68.11
47280;BME280;34064;44.942;0.008;2024-01-07T08:20:18;99487.84;;;5.62;67.77
47280;BME280;34064;44.942;0.008;2024-01-07T08:22:45;99496.63;;;5.63;67.84
47280;BME280;34064;44.942;0.008;2024-01-07T08:25:11;99485.16;;;5.64;68.02
47280;BME280;34064;44.942;0.008;2024-01-07T08:27:41;99494.69;;;5.67;67.71
47280;BME280;34064;44.942;0.008;2024-01-07T08:30:08;99500.75;;;5.69;68.08
47280;BME280;34064;44.942;0.008;2024-01-07T08:32:34;99497.75;;;5.76;67.74
47280;BME280;34064;44.942;0.008;2024-01-07T08:35:01;99498.53;;;5.78;67.87
47280;BME280;34064;44.942;0.008;2024-01-07T08:37:27;99492.00;;;5.87;67.46
47280;BME280;34064;44.942;0.008;2024-01-07T08:39:53;99499.13;;;5.85;67.68
47280;BME280;34064;44.942;0.008;2024-01-07T08:42:20;99499.84;;;5.89;67.68
47280;BME280;34064;44.942;0.008;2024-01-07T08:44:46;99499.75;;;5.90;67.84
47280;BME280;34064;44.942;0.008;2024-01-07T08:47:13;99492.50;;;5.96;67.71
47280;BME280;34064;44.942;0.008;2024-01-07T08:49:40;99495.78;;;6.01;67.60
47280;BME280;34064;44.942;0.008;2024-01-07T08:52:06;99501.88;;;6.03;67.60
47280;BME280;34064;44.942;0.008;2024-01-07T08:54:33;99502.56;;;6.06;68.08
47280;BME280;34064;44.942;0.008;2024-01-07T08:56:59;99502.22;;;6.14;67.62
47280;BME280;34064;44.942;0.008;2024-01-07T08:59:25;99503.81;;;6.18;67.61
47280;BME280;34064;44.942;0.008;2024-01-07T09:01:52;99502.00;;;6.19;67.57
47280;BME280;34064;44.942;0.008;2024-01-07T09:04:18;99510.75;;;6.19;67.78
47280;BME280;34064;44.942;0.008;2024-01-07T09:06:45;99506.13;;;6.24;67.90
47280;BME280;34064;44.942;0.008;2024-01-07T09:09:11;99502.28;;;6.32;67.87
47280;BME280;34064;44.942;0.008;2024-01-07T09:11:37;99497.41;;;6.42;67.75
47280;BME280;34064;44.942;0.008;2024-01-07T09:14:04;99484.97;;;6.44;67.62
47280;BME280;34064;44.942;0.008;2024-01-07T09:16:30;99487.69;;;6.42;67.70
47280;BME280;34064;44.942;0.008;2024-01-07T09:18:56;99485.53;;;6.50;67.55
47280;BME280;34064;44.942;0.008;2024-01-07T09:21:23;99498.75;;;6.50;67.74
47280;BME280;34064;44.942;0.008;2024-01-07T09:23:49;99492.69;;;6.48;67.79
47280;BME280;34064;44.942;0.008;2024-01-07T09:26:16;99492.41;;;6.54;67.92
47280;BME280;34064;44.942;0.008;2024-01-07T09:28:42;99487.13;;;6.54;67.98
47280;BME280;34064;44.942;0.008;2024-01-07T09:31:09;99489.34;;;6.62;67.82
47280;BME280;34064;44.942;0.008;2024-01-07T09:33:35;99484.63;;;6.69;67.47
47280;BME280;34064;44.942;0.008;2024-01-07T09:36:01;99497.69;;;6.72;67.45
47280;BME280;34064;44.942;0.008;2024-01-07T09:38:27;99496.78;;;6.73;67.57
47280;BME280;34064;44.942;0.008;2024-01-07T09:40:54;99496.06;;;6.69;67.61
47280;BME280;34064;44.942;0.008;2024-01-07T09:43:21;99492.88;;;6.80;67.24
47280;BME280;34064;44.942;0.008;2024-01-07T09:45:47;99497.31;;;6.80;67.16
47280;BME280;34064;44.942;0.008;2024-01-07T09:48:15;99494.59;;;6.81;67.41
47280;BME280;34064;44.942;0.008;2024-01-07T09:50:42;99501.41;;;6.85;67.46
47280;BME280;34064;44.942;0.008;2024-01-07T09:53:14;99509.28;;;6.87;67.25
47280;BME280;34064;44.942;0.008;2024-01-07T09:58:42;99500.94;;;6.95;67.39
47280;BME280;34064;44.942;0.008;2024-01-07T10:01:09;99499.78;;;7.00;67.30
47280;BME280;34064;44.942;0.008;2024-01-07T10:03:35;99508.66;;;6.99;67.30
47280;BME280;34064;44.942;0.008;2024-01-07T10:06:02;99506.56;;;7.06;67.30
47280;BME280;34064;44.942;0.008;2024-01-07T10:08:28;99509.88;;;7.10;67.10
47280;BME280;34064;44.942;0.008;2024-01-07T10:10:54;99502.66;;;7.13;67.23
47280;BME280;34064;44.942;0.008;2024-01-07T10:13:23;99503.28;;;7.18;66.91
47280;BME280;34064;44.942;0.008;2024-01-07T10:15:49;99495.97;;;7.24;66.58
47280;BME280;34064;44.942;0.008;2024-01-07T10:18:15;99503.28;;;7.18;66.72
47280;BME280;34064;44.942;0.008;2024-01-07T10:20:42;99503.16;;;7.22;66.70
47280;BME280;34064;44.942;0.008;2024-01-07T10:23:09;99494.25;;;7.23;66.80
47280;BME280;34064;44.942;0.008;2024-01-07T10:25:36;99497.53;;;7.28;66.44
47280;BME280;34064;44.942;0.008;2024-01-07T10:28:03;99501.09;;;7.27;66.70
47280;BME280;34064;44.942;0.008;2024-01-07T10:30:30;99486.47;;;7.37;66.65
47280;BME280;34064;44.942;0.008;2024-01-07T10:33:00;99494.50;;;7.36;66.87
47280;BME280;34064;44.942;0.008;2024-01-07T10:35:48;99488.63;;;7.46;66.53
47280;BME280;34064;44.942;0.008;2024-01-07T10:38:17;99487.69;;;7.47;66.79
47280;BME280;34064;44.942;0.008;2024-01-07T10:40:44;99490.19;;;7.51;66.52
47280;BME280;34064;44.942;0.008;2024-01-07T10:43:13;99493.88;;;7.64;66.14
47280;BME280;34064;44.942;0.008;2024-01-07T10:45:41;99491.63;;;7.56;66.63
47280;BME280;34064;44.942;0.008;2024-01-07T10:48:08;99488.94;;;7.58;66.44
47280;BME280;34064;44.942;0.008;2024-01-07T10:50:37;99488.75;;;7.61;66.45
47280;BME280;34064;44.942;0.008;2024-01-07T10:53:05;99493.09;;;7.62;66.54
47280;BME280;34064;44.942;0.008;2024-01-07T10:55:37;99486.88;;;7.63;66.56
47280;BME280;34064;44.942;0.008;2024-01-07T10:58:06;99494.66;;;7.66;66.52
47280;BME280;34064;44.942;0.008;2024-01-07T11:00:33;99492.00;;;7.66;66.65
47280;BME280;34064;44.942;0.008;2024-01-07T11:03:38;99488.25;;;7.70;66.35
47280;BME280;34064;44.942;0.008;2024-01-07T11:06:01;99493.53;;;7.70;66.52
47280;BME280;34064;44.942;0.008;2024-01-07T11:08:43;99485.19;;;7.78;65.98
47280;BME280;34064;44.942;0.008;2024-01-07T11:11:16;99481.72;;;7.77;66.13
47280;BME280;34064;44.942;0.008;2024-01-07T11:13:44;99484.34;;;7.77;66.28
47280;BME280;34064;44.942;0.008;2024-01-07T11:16:10;99474.38;;;7.83;66.18
47280;BME280;34064;44.942;0.008;2024-01-07T11:18:46;99464.41;;;7.88;65.87
47280;BME280;34064;44.942;0.008;2024-01-07T11:21:23;99472.41;;;7.86;66.05
47280;BME280;34064;44.942;0.008;2024-01-07T11:23:51;99467.78;;;7.90;66.05
47280;BME280;34064;44.942;0.008;2024-01-07T11:26:21;99467.63;;;7.93;66.13
47280;BME280;34064;44.942;0.008;2024-01-07T11:28:51;99460.22;;;8.00;66.25
47280;BME280;34064;44.942;0.008;2024-01-07T11:34:04;99448.88;;;8.14;65.54
47280;BME280;34064;44.942;0.008;2024-01-07T11:36:30;99441.69;;;8.16;65.28
47280;BME280;34064;44.942;0.008;2024-01-07T11:38:57;99445.44;;;8.11;65.71
47280;BME280;34064;44.942;0.008;2024-01-07T11:41:27;99445.34;;;8.13;65.77
47280;BME280;34064;44.942;0.008;2024-01-07T11:43:54;99443.22;;;8.20;65.43
47280;BME280;34064;44.942;0.008;2024-01-07T11:46:22;99434.34;;;8.21;65.73
47280;BME280;34064;44.942;0.008;2024-01-07T11:48:58;99439.38;;;8.25;65.78
47280;BME280;34064;44.942;0.008;2024-01-07T11:51:29;99419.47;;;8.34;65.69
47280;BME280;34064;44.942;0.008;2024-01-07T11:53:57;99411.25;;;8.39;65.73
47280;BME280;34064;44.942;0.008;2024-01-07T11:56:28;99419.44;;;8.50;65.66
47280;BME280;34064;44.942;0.008;2024-01-07T11:58:54;99409.19;;;8.60;65.47
47280;BME280;34064;44.942;0.008;2024-01-07T12:01:22;99398.72;;;8.73;64.72
47280;BME280;34064;44.942;0.008;2024-01-07T12:03:48;99395.03;;;8.76;64.55
47280;BME280;34064;44.942;0.008;2024-01-07T12:06:16;99392.19;;;8.79;64.71
47280;BME280;34064;44.942;0.008;2024-01-07T12:08:46;99384.63;;;8.87;64.74
47280;BME280;34064;44.942;0.008;2024-01-07T12:11:13;99382.97;;;9.00;63.47
47280;BME280;34064;44.942;0.008;2024-01-07T12:13:40;99383.03;;;8.99;63.46
47280;BME280;34064;44.942;0.008;2024-01-07T12:16:08;99374.81;;;9.03;63.49
47280;BME280;34064;44.942;0.008;2024-01-07T12:18:41;99368.59;;;9.19;62.98
47280;BME280;34064;44.942;0.008;2024-01-07T12:21:08;99370.75;;;9.27;63.05
47280;BME280;34064;44.942;0.008;2024-01-07T12:23:37;99358.91;;;9.32;62.23
47280;BME280;34064;44.942;0.008;2024-01-07T12:26:12;99359.13;;;9.29;62.90
47280;BME280;34064;44.942;0.008;2024-01-07T12:28:39;99371.59;;;9.27;62.53
47280;BME280;34064;44.942;0.008;2024-01-07T12:31:06;99362.41;;;9.33;61.16
47280;BME280;34064;44.942;0.008;2024-01-07T12:33:32;99375.38;;;9.23;61.39
47280;BME280;34064;44.942;0.008;2024-01-07T12:36:00;99366.28;;;9.13;62.06
47280;BME280;34064;44.942;0.008;2024-01-07T12:38:27;99376.50;;;9.04;62.13
47280;BME280;34064;44.942;0.008;2024-01-07T12:40:53;99381.53;;;8.95;61.64
47280;BME280;34064;44.942;0.008;2024-01-07T12:43:20;99382.09;;;9.00;61.86
47280;BME280;34064;44.942;0.008;2024-01-07T12:45:50;99383.69;;;8.88;62.18
47280;BME280;34064;44.942;0.008;2024-01-07T12:48:16;99386.53;;;8.85;62.79
47280;BME280;34064;44.942;0.008;2024-01-07T12:50:42;99383.69;;;8.88;62.33
47280;BME280;34064;44.942;0.008;2024-01-07T12:53:09;99387.28;;;8.87;60.91
47280;BME280;34064;44.942;0.008;2024-01-07T12:55:36;99401.47;;;8.71;61.33
47280;BME280;34064;44.942;0.008;2024-01-07T12:58:02;99404.69;;;8.77;61.43
47280;BME280;34064;44.942;0.008;2024-01-07T13:00:28;99408.25;;;8.76;61.56
47280;BME280;34064;44.942;0.008;2024-01-07T13:02:55;99405.72;;;8.74;60.86
47280;BME280;34064;44.942;0.008;2024-01-07T13:05:22;99405.06;;;8.70;60.96
47280;BME280;34064;44.942;0.008;2024-01-07T13:07:48;99401.25;;;8.74;60.84
47280;BME280;34064;44.942;0.008;2024-01-07T13:10:16;99392.03;;;8.82;59.84
47280;BME280;34064;44.942;0.008;2024-01-07T13:12:43;99397.50;;;8.79;58.35
47280;BME280;34064;44.942;0.008;2024-01-07T13:15:09;99388.44;;;8.83;57.51